Avalon, NJ

1:27 AM EDT on March 27, 2017 (GMT -0400)
Avalon Manor | | Change Station

Elev 33 ft 39.11 °N, 74.74 °W | Updated 55 seconds ago

Fog
Fog
45.9 °F
Feels Like 42 °F
N
7.0
Wind Variable Wind from East

Today
High -- | Low -- °F
--% Chance of Precip.
Yesterday
High -- | Low -- °F
Precip. -- in
Pressure 30.23 in
Visibility 0.8 miles
Clouds Overcast 300 ft
Windchill 42 °F
Dew Point 45 °F
Humidity 96%
Rainfall 0.00 in
Snow Depth Not available.
6:50 AM 7:18 PM
Waning Crescent, 1% visible
METAR KWWD 270456Z AUTO 06007KT 3/4SM BR OVC003 07/07 A3022 RMK AO2 SLP237 T00670067 400720056 $
Pressure 30.23 in
Visibility 0.8 miles
Clouds Overcast 300 ft
Windchill 42 °F
Dew Point 45 °F
Humidity 96%
Rainfall 0.00 in
Snow Depth Not available.
6:50 AM 7:18 PM
Waning Crescent, 1% visible
METAR KWWD 270456Z AUTO 06007KT 3/4SM BR OVC003 07/07 A3022 RMK AO2 SLP237 T00670067 400720056 $

Get Severe Weather Alerts

Thanks for signing up!

Be on the lookout for a verification email in your inbox.

You'll start receiving the daily forecast at 8 AM.

×

10-Day Weather Forecast

Almanac

Astronomy

Mar. 27, 2017 Rise Set
Actual Time
Civil Twilight
Nautical Twilight
Astronomical Twilight
Moon
Length of Visible Light
Length of Day
Tomorrow will be .
, % of the Moon is Illuminated

Today's Extremes

State Highs State Lows

Community

WunderPhotos

Upload Photos

1,962,540 photos uploaded!

WunderBlog® & News

Nearby

Air Quality

  Air Quality AQ Index Pollutant
Not available.

Snow Depth

Station Depth Elevation

Earthquake Activity

City Distance Mag. Time & Date
Minimum magnitude displayed is 2.5.

Earthquake Activity

City Distance Mag. Time & Date
Minimum magnitude displayed is 2.5.

Coastal Water Temperatures

Place Temperature

Stations

Nearby Weather Stations

Station Location Temp. Windchill Dew Point Humidity Wind Precip. Elev Updated Type
                   

Watches & Warnings

There are currently no watches in effect.